Dades meteomassalio
Diari Summary for Agost 11, 2017 Units:  Metric    English   Both
« Previous Day
Next Day »
Diari Semanal Mensual Anual Personalitzat
  Maxima: Minima: Mijana:
Temperatura: 27.0 °C 14.5 °C 20.1 °C
Rosada: 9.5 °C 5.1 °C 7.6 °C
Humitat: 63 % 25 % 47 %
Velocitat del vent: 42.6 km/h 0.0 km/h 24.2 km/h
Racha vent: 42.6 km/h - -
Vent:- - WNW
Pressio: 1023.9 hPa 1019.2 hPa -
Pluja: 0.0 mm    
Historical Graphs
 
 
Tabular Data for Agost 11, 2017
Time Temperature Dew Point Pressure Wind Wind Speed Wind Gust Humidity Rainfall Rate (Hourly) solar Conditions
00:03 17.6 °C 9.5 °C 1023.6 hPa WNW 29.6 km/h 29.6 km/h 59 % 0.0 mm 0.0 W/m2 CLR
00:08 17.5 °C 9.4 °C 1023.6 hPa WNW 29.6 km/h 29.6 km/h 59 % 0.0 mm 0.0 W/m2 CLR
00:13 17.4 °C 9.3 °C 1023.6 hPa West 25.9 km/h 25.9 km/h 59 % 0.0 mm 0.0 W/m2 CLR
00:18 17.3 °C 9.2 °C 1023.9 hPa West 33.3 km/h 33.3 km/h 59 % 0.0 mm 0.0 W/m2 CLR
00:23 17.2 °C 9.1 °C 1023.9 hPa WNW 29.6 km/h 29.6 km/h 59 % 0.0 mm 0.0 W/m2 CLR
00:28 17.2 °C 9.3 °C 1023.6 hPa WNW 31.5 km/h 31.5 km/h 60 % 0.0 mm 0.0 W/m2 CLR
00:33 17.1 °C 9.3 °C 1023.6 hPa West 25.9 km/h 25.9 km/h 60 % 0.0 mm 0.0 W/m2 CLR
00:38 17.1 °C 9.2 °C 1023.6 hPa WNW 24.1 km/h 24.1 km/h 60 % 0.0 mm 0.0 W/m2 CLR
00:43 17.0 °C 8.9 °C 1023.6 hPa WNW 29.0 km/h 29.0 km/h 59 % 0.0 mm 0.0 W/m2 CLR
00:48 17.1 °C 8.7 °C 1023.6 hPa West 24.1 km/h 24.1 km/h 58 % 0.0 mm 0.0 W/m2 CLR
00:53 17.1 °C 8.7 °C 1023.6 hPa WNW 29.6 km/h 29.6 km/h 58 % 0.0 mm 0.0 W/m2 CLR
00:58 17.0 °C 8.9 °C 1023.2 hPa West 20.4 km/h 20.4 km/h 59 % 0.0 mm 0.0 W/m2 CLR
01:03 16.9 °C 8.9 °C 1023.6 hPa WNW 27.8 km/h 27.8 km/h 59 % 0.0 mm 0.0 W/m2 CLR
01:08 16.9 °C 8.9 °C 1023.6 hPa West 27.4 km/h 27.4 km/h 59 % 0.0 mm 0.0 W/m2 CLR
01:13 16.8 °C 8.8 °C 1023.6 hPa West 24.1 km/h 24.1 km/h 59 % 0.0 mm 0.0 W/m2 CLR
01:18 16.8 °C 9.0 °C 1023.6 hPa WNW 17.7 km/h 17.7 km/h 60 % 0.0 mm 0.0 W/m2 CLR
01:23 16.8 °C 8.9 °C 1023.6 hPa West 22.2 km/h 22.2 km/h 60 % 0.0 mm 0.0 W/m2 CLR
01:28 16.7 °C 9.1 °C 1023.6 hPa WSW 27.4 km/h 27.4 km/h 61 % 0.0 mm 0.0 W/m2 CLR
01:33 16.7 °C 9.1 °C 1023.6 hPa West 24.1 km/h 24.1 km/h 61 % 0.0 mm 0.0 W/m2 CLR
01:38 16.6 °C 9.1 °C 1023.6 hPa WNW 22.5 km/h 22.5 km/h 61 % 0.0 mm 0.0 W/m2 CLR
01:44 16.5 °C 8.9 °C 1023.6 hPa West 24.1 km/h 24.1 km/h 61 % 0.0 mm 0.0 W/m2 CLR
01:49 16.4 °C 8.8 °C 1023.6 hPa West 29.6 km/h 29.6 km/h 61 % 0.0 mm 0.0 W/m2 CLR
01:54 16.4 °C 8.9 °C 1023.6 hPa West 35.2 km/h 35.2 km/h 61 % 0.0 mm 0.0 W/m2 CLR
01:59 16.4 °C 8.8 °C 1023.6 hPa West 33.3 km/h 33.3 km/h 61 % 0.0 mm 0.0 W/m2 CLR
02:04 16.3 °C 8.8 °C 1023.6 hPa West 33.3 km/h 33.3 km/h 61 % 0.0 mm 0.0 W/m2 CLR
02:09 16.3 °C 8.8 °C 1023.6 hPa SW 27.4 km/h 27.4 km/h 61 % 0.0 mm 0.0 W/m2 CLR
02:14 16.2 °C 8.9 °C 1023.6 hPa WNW 31.5 km/h 31.5 km/h 62 % 0.0 mm 0.0 W/m2 CLR
02:19 16.2 °C 8.9 °C 1023.2 hPa WSW 31.5 km/h 31.5 km/h 62 % 0.0 mm 0.0 W/m2 CLR
02:24 16.1 °C 8.8 °C 1023.2 hPa WNW 25.9 km/h 25.9 km/h 62 % 0.0 mm 0.0 W/m2 CLR
02:29 16.1 °C 8.8 °C 1023.2 hPa WNW 31.5 km/h 31.5 km/h 62 % 0.0 mm 0.0 W/m2 CLR
02:34 16.0 °C 8.7 °C 1023.2 hPa WNW 31.5 km/h 31.5 km/h 62 % 0.0 mm 0.0 W/m2 CLR
02:39 16.0 °C 8.7 °C 1023.2 hPa WNW 33.3 km/h 33.3 km/h 62 % 0.0 mm 0.0 W/m2 CLR
02:44 15.9 °C 8.7 °C 1023.2 hPa WNW 27.8 km/h 27.8 km/h 62 % 0.0 mm 0.0 W/m2 CLR
02:49 15.9 °C 8.6 °C 1023.2 hPa West 31.5 km/h 31.5 km/h 62 % 0.0 mm 0.0 W/m2 CLR
02:54 15.9 °C 8.7 °C 1023.2 hPa West 24.1 km/h 24.1 km/h 62 % 0.0 mm 0.0 W/m2 CLR
02:59 15.8 °C 8.6 °C 1023.2 hPa West 25.7 km/h 25.7 km/h 62 % 0.0 mm 0.0 W/m2 CLR
03:04 15.8 °C 8.3 °C 1022.9 hPa West 27.8 km/h 27.8 km/h 61 % 0.0 mm 0.0 W/m2 CLR
03:09 15.8 °C 8.6 °C 1022.9 hPa West 33.3 km/h 33.3 km/h 62 % 0.0 mm 0.0 W/m2 CLR
03:14 15.8 °C 8.3 °C 1022.9 hPa West 25.9 km/h 25.9 km/h 61 % 0.0 mm 0.0 W/m2 CLR
03:19 15.8 °C 8.3 °C 1023.2 hPa WSW 20.4 km/h 20.4 km/h 61 % 0.0 mm 0.0 W/m2 CLR
03:24 15.7 °C 8.2 °C 1023.2 hPa West 24.1 km/h 24.1 km/h 61 % 0.0 mm 0.0 W/m2 CLR
03:29 15.7 °C 8.2 °C 1022.9 hPa WNW 29.6 km/h 29.6 km/h 61 % 0.0 mm 0.0 W/m2 CLR
03:34 15.7 °C 8.2 °C 1022.9 hPa West 29.0 km/h 29.0 km/h 61 % 0.0 mm 0.0 W/m2 CLR
03:39 15.7 °C 8.0 °C 1022.9 hPa West 27.8 km/h 27.8 km/h 60 % 0.0 mm 0.0 W/m2 CLR
03:44 15.7 °C 8.0 °C 1023.2 hPa WSW 33.3 km/h 33.3 km/h 60 % 0.0 mm 0.0 W/m2 CLR
03:49 15.8 °C 7.8 °C 1023.2 hPa WNW 35.2 km/h 35.2 km/h 59 % 0.0 mm 0.0 W/m2 CLR
03:54 15.8 °C 7.8 °C 1023.2 hPa West 35.2 km/h 35.2 km/h 59 % 0.0 mm 0.0 W/m2 CLR
03:59 15.8 °C 7.8 °C 1023.2 hPa West 25.9 km/h 25.9 km/h 59 % 0.0 mm 0.0 W/m2 CLR
04:04 15.7 °C 7.7 °C 1023.2 hPa West 22.2 km/h 22.2 km/h 59 % 0.0 mm 0.0 W/m2 CLR
04:09 15.6 °C 7.6 °C 1023.2 hPa West 29.6 km/h 29.6 km/h 59 % 0.0 mm 0.0 W/m2 CLR
04:14 15.6 °C 7.6 °C 1023.2 hPa West 33.3 km/h 33.3 km/h 59 % 0.0 mm 0.0 W/m2 CLR
04:19 15.5 °C 7.5 °C 1023.2 hPa West 27.8 km/h 27.8 km/h 59 % 0.0 mm 0.0 W/m2 CLR
04:24 15.6 °C 7.6 °C 1023.2 hPa West 24.1 km/h 24.1 km/h 59 % 0.0 mm 0.0 W/m2 CLR
04:29 15.6 °C 7.6 °C 1023.2 hPa WNW 29.6 km/h 29.6 km/h 59 % 0.0 mm 0.0 W/m2 CLR
04:34 15.6 °C 7.4 °C 1023.2 hPa WNW 35.2 km/h 35.2 km/h 58 % 0.0 mm 0.0 W/m2 CLR
04:39 15.6 °C 7.3 °C 1023.2 hPa WSW 31.5 km/h 31.5 km/h 58 % 0.0 mm 0.0 W/m2 CLR
04:44 15.5 °C 7.3 °C 1023.2 hPa West 29.6 km/h 29.6 km/h 58 % 0.0 mm 0.0 W/m2 CLR
04:49 15.4 °C 7.2 °C 1022.9 hPa West 38.9 km/h 38.9 km/h 58 % 0.0 mm 0.0 W/m2 CLR
04:54 15.4 °C 7.2 °C 1022.9 hPa West 31.5 km/h 31.5 km/h 58 % 0.0 mm 0.0 W/m2 CLR
04:59 15.4 °C 7.2 °C 1022.6 hPa West 31.5 km/h 31.5 km/h 58 % 0.0 mm 0.0 W/m2 CLR
05:04 15.4 °C 7.2 °C 1022.6 hPa WNW 33.3 km/h 33.3 km/h 58 % 0.0 mm 0.0 W/m2 CLR
05:09 15.3 °C 7.1 °C 1022.6 hPa WNW 35.4 km/h 35.4 km/h 58 % 0.0 mm 0.0 W/m2 CLR
05:14 15.3 °C 7.1 °C 1022.6 hPa WNW 37.0 km/h 37.0 km/h 58 % 0.0 mm 0.0 W/m2 CLR
05:19 15.3 °C 7.1 °C 1022.2 hPa WNW 42.6 km/h 42.6 km/h 58 % 0.0 mm 0.0 W/m2 CLR
05:21 15.3 °C 7.1 °C 1022.2 hPa West 42.6 km/h 42.6 km/h 58 % 0.0 mm 0.0 W/m2 CLR
05:26 15.3 °C 7.1 °C 1022.6 hPa WSW 35.2 km/h 35.2 km/h 58 % 0.0 mm 0.0 W/m2 CLR
05:31 15.2 °C 7.0 °C 1022.6 hPa WNW 24.1 km/h 24.1 km/h 58 % 0.0 mm 0.0 W/m2 CLR
05:36 15.2 °C 6.9 °C 1022.6 hPa WNW 31.5 km/h 31.5 km/h 58 % 0.0 mm 0.0 W/m2 CLR
05:41 15.1 °C 6.7 °C 1022.2 hPa WNW 31.5 km/h 31.5 km/h 57 % 0.0 mm 0.0 W/m2 CLR
05:46 15.1 °C 6.7 °C 1022.2 hPa WNW 38.9 km/h 38.9 km/h 57 % 0.0 mm 0.0 W/m2 CLR
05:51 15.2 °C 6.7 °C 1022.2 hPa WNW 37.0 km/h 37.0 km/h 57 % 0.0 mm 0.0 W/m2 CLR
05:56 15.1 °C 6.7 °C 1022.2 hPa NW 37.0 km/h 37.0 km/h 57 % 0.0 mm 0.0 W/m2 CLR
06:01 15.1 °C 6.6 °C 1022.2 hPa WNW 29.0 km/h 29.0 km/h 57 % 0.0 mm 0.0 W/m2 CLR
06:06 15.0 °C 6.6 °C 1022.6 hPa West 27.8 km/h 27.8 km/h 57 % 0.0 mm 0.0 W/m2 CLR
06:11 15.1 °C 6.8 °C 1022.2 hPa WNW 18.5 km/h 19.3 km/h 58 % 0.0 mm 0.0 W/m2 CLR
06:16 15.0 °C 6.8 °C 1022.6 hPa West 13.0 km/h 13.0 km/h 58 % 0.0 mm 0.0 W/m2 CLR
06:21 14.9 °C 6.7 °C 1022.6 hPa West 18.5 km/h 18.5 km/h 58 % 0.0 mm 0.0 W/m2 CLR
06:26 14.9 °C 6.9 °C 1022.6 hPa WSW 18.5 km/h 18.5 km/h 59 % 0.0 mm 0.0 W/m2 CLR
06:27 14.9 °C 6.9 °C 1022.6 hPa WSW 18.5 km/h 18.5 km/h 59 % 0.0 mm 0.0 W/m2 CLR
06:32 14.8 °C 6.8 °C 1022.6 hPa SSW 13.0 km/h 13.0 km/h 59 % 0.0 mm 0.0 W/m2 CLR
06:37 14.7 °C 7.1 °C 1022.6 hPa West 20.4 km/h 20.4 km/h 60 % 0.0 mm 0.0 W/m2 CLR
06:42 14.7 °C 7.1 °C 1022.6 hPa WSW 18.5 km/h 18.5 km/h 60 % 0.0 mm 0.0 W/m2 CLR
06:47 14.7 °C 7.0 °C 1022.6 hPa SW 5.6 km/h 5.6 km/h 60 % 0.0 mm 0.0 W/m2 CLR
06:52 14.6 °C 7.1 °C 1022.6 hPa WSW 9.3 km/h 9.3 km/h 61 % 0.0 mm 0.0 W/m2 CLR
06:57 14.5 °C 7.1 °C 1022.6 hPa West 18.5 km/h 18.5 km/h 61 % 0.0 mm 0.0 W/m2 CLR
07:02 14.6 °C 7.3 °C 1022.6 hPa West 22.2 km/h 22.2 km/h 62 % 0.0 mm 0.0 W/m2 OVC
07:07 14.5 °C 7.3 °C 1022.6 hPa West 14.5 km/h 14.5 km/h 62 % 0.0 mm 0.0 W/m2 OVC
07:12 14.5 °C 7.3 °C 1022.9 hPa WSW 16.7 km/h 16.7 km/h 62 % 0.0 mm 5.0 W/m2 OVC
07:17 14.6 °C 7.6 °C 1022.9 hPa WSW 11.1 km/h 11.1 km/h 63 % 0.0 mm 9.0 W/m2 BKN
07:22 14.6 °C 7.6 °C 1022.9 hPa West 18.5 km/h 18.5 km/h 63 % 0.0 mm 11.0 W/m2 BKN
07:27 14.6 °C 7.7 °C 1022.9 hPa WNW 22.2 km/h 22.2 km/h 63 % 0.0 mm 14.0 W/m2 BKN
07:32 14.7 °C 7.7 °C 1022.9 hPa West 25.9 km/h 25.9 km/h 63 % 0.0 mm 14.0 W/m2 BKN
07:37 14.6 °C 7.7 °C 1022.9 hPa NNW 20.9 km/h 20.9 km/h 63 % 0.0 mm 19.0 W/m2 BKN
07:42 14.7 °C 7.7 °C 1022.9 hPa West 22.2 km/h 22.2 km/h 63 % 0.0 mm 21.0 W/m2 BKN
07:47 14.7 °C 7.7 °C 1022.9 hPa WNW 22.2 km/h 22.2 km/h 63 % 0.0 mm 28.0 W/m2 BKN
07:52 14.7 °C 7.7 °C 1023.2 hPa WSW 16.7 km/h 16.7 km/h 63 % 0.0 mm 39.0 W/m2 BKN
07:57 14.8 °C 7.8 °C 1023.2 hPa SW 16.7 km/h 16.7 km/h 63 % 0.0 mm 62.0 W/m2 SCT
08:02 14.9 °C 7.9 °C 1023.2 hPa West 13.0 km/h 13.0 km/h 63 % 0.0 mm 98.0 W/m2 CLR
08:07 15.1 °C 7.8 °C 1022.9 hPa West 20.4 km/h 20.4 km/h 62 % 0.0 mm 125.0 W/m2 CLR
08:12 15.2 °C 7.9 °C 1022.9 hPa WNW 16.7 km/h 16.7 km/h 62 % 0.0 mm 144.0 W/m2 CLR
08:17 15.3 °C 8.1 °C 1023.2 hPa WSW 12.9 km/h 12.9 km/h 62 % 0.0 mm 155.0 W/m2 CLR
08:22 15.5 °C 8.0 °C 1022.9 hPa West 27.8 km/h 27.8 km/h 61 % 0.0 mm 193.0 W/m2 CLR
08:27 15.7 °C 8.0 °C 1023.2 hPa West 18.5 km/h 18.5 km/h 60 % 0.0 mm 227.0 W/m2 CLR
08:32 15.8 °C 8.1 °C 1023.2 hPa NNW 22.2 km/h 22.2 km/h 60 % 0.0 mm 230.0 W/m2 CLR
08:37 16.0 °C 8.2 °C 1023.2 hPa NW 20.4 km/h 20.4 km/h 60 % 0.0 mm 253.0 W/m2 CLR
08:42 15.9 °C 7.9 °C 1023.2 hPa WNW 27.8 km/h 27.8 km/h 59 % 0.0 mm 83.0 W/m2 CLR
08:47 15.8 °C 8.0 °C 1023.2 hPa NW 22.2 km/h 22.2 km/h 60 % 0.0 mm 102.0 W/m2 CLR
08:52 15.7 °C 8.2 °C 1023.2 hPa West 18.5 km/h 18.5 km/h 61 % 0.0 mm 93.0 W/m2 CLR
08:57 15.8 °C 8.3 °C 1023.2 hPa WNW 31.5 km/h 31.5 km/h 61 % 0.0 mm 281.0 W/m2 CLR
09:02 16.1 °C 8.3 °C 1023.2 hPa NW 29.6 km/h 29.6 km/h 60 % 0.0 mm 318.0 W/m2 CLR
09:07 16.3 °C 8.3 °C 1023.2 hPa NW 31.5 km/h 31.5 km/h 59 % 0.0 mm 295.0 W/m2 CLR
09:12 16.3 °C 8.3 °C 1023.2 hPa WNW 33.3 km/h 33.3 km/h 59 % 0.0 mm 253.0 W/m2 CLR
09:17 16.4 °C 8.3 °C 1023.2 hPa NW 29.6 km/h 29.6 km/h 59 % 0.0 mm 287.0 W/m2 CLR
09:22 16.6 °C 8.5 °C 1023.2 hPa NW 24.1 km/h 24.1 km/h 59 % 0.0 mm 373.0 W/m2 CLR
09:27 16.9 °C 8.6 °C 1023.6 hPa WNW 35.2 km/h 35.2 km/h 58 % 0.0 mm 439.0 W/m2 CLR
09:32 17.0 °C 8.7 °C 1023.6 hPa WNW 31.5 km/h 31.5 km/h 58 % 0.0 mm 181.0 W/m2 CLR
09:37 17.1 °C 8.4 °C 1023.6 hPa NW 38.9 km/h 38.9 km/h 57 % 0.0 mm 281.0 W/m2 CLR
09:42 17.2 °C 8.6 °C 1023.2 hPa NW 30.6 km/h 30.6 km/h 57 % 0.0 mm 408.0 W/m2 CLR
09:47 17.2 °C 8.6 °C 1023.2 hPa NNW 37.0 km/h 37.0 km/h 57 % 0.0 mm 311.0 W/m2 CLR
09:52 17.1 °C 8.5 °C 1023.2 hPa NNW 35.4 km/h 35.4 km/h 57 % 0.0 mm 141.0 W/m2 CLR
09:57 16.9 °C 8.6 °C 1023.2 hPa WNW 18.5 km/h 18.5 km/h 58 % 0.0 mm 367.0 W/m2 CLR
10:02 17.2 °C 8.4 °C 1023.2 hPa NW 27.8 km/h 27.8 km/h 56 % 0.0 mm 510.0 W/m2 CLR
10:07 17.3 °C 8.4 °C 1023.2 hPa NW 27.8 km/h 27.8 km/h 56 % 0.0 mm 260.0 W/m2 CLR
10:12 17.6 °C 8.4 °C 1023.2 hPa NNW 31.5 km/h 31.5 km/h 55 % 0.0 mm 554.0 W/m2 CLR
10:17 17.8 °C 8.9 °C 1022.9 hPa NNW 16.1 km/h 16.1 km/h 56 % 0.0 mm 587.0 W/m2 CLR
10:19 17.9 °C 8.7 °C 1022.9 hPa NNW 27.4 km/h 27.4 km/h 55 % 0.0 mm 570.0 W/m2 CLR
10:24 18.1 °C 8.6 °C 1022.9 hPa NW 31.5 km/h 31.5 km/h 54 % 0.0 mm 501.0 W/m2 CLR
10:29 18.1 °C 8.4 °C 1022.9 hPa WNW 29.6 km/h 29.6 km/h 53 % 0.0 mm 659.0 W/m2 CLR
10:34 18.4 °C 8.3 °C 1022.9 hPa WNW 35.2 km/h 35.2 km/h 52 % 0.0 mm 701.0 W/m2 CLR
10:39 18.3 °C 8.2 °C 1022.9 hPa WNW 29.6 km/h 29.6 km/h 52 % 0.0 mm 185.0 W/m2 CLR
10:44 17.8 °C 8.1 °C 1023.2 hPa WNW 24.1 km/h 24.1 km/h 53 % 0.0 mm 292.0 W/m2 CLR
10:49 17.9 °C 8.5 °C 1023.2 hPa WNW 18.5 km/h 18.5 km/h 54 % 0.0 mm 496.0 W/m2 CLR
10:54 18.5 °C 8.4 °C 1022.9 hPa WNW 27.8 km/h 27.8 km/h 52 % 0.0 mm 496.0 W/m2 CLR
10:59 18.7 °C 8.4 °C 1022.9 hPa NW 35.4 km/h 35.4 km/h 51 % 0.0 mm 680.0 W/m2 CLR
11:04 18.7 °C 8.7 °C 1022.9 hPa WNW 25.9 km/h 25.9 km/h 52 % 0.0 mm 682.0 W/m2 CLR
11:09 19.2 °C 8.5 °C 1022.9 hPa WNW 31.5 km/h 31.5 km/h 50 % 0.0 mm 712.0 W/m2 CLR
11:14 19.2 °C 8.5 °C 1022.9 hPa North 24.1 km/h 24.1 km/h 50 % 0.0 mm 684.0 W/m2 CLR
11:19 19.4 °C 8.4 °C 1022.9 hPa NW 20.9 km/h 20.9 km/h 49 % 0.0 mm 698.0 W/m2 CLR
11:24 19.6 °C 8.2 °C 1022.6 hPa NW 31.5 km/h 31.5 km/h 48 % 0.0 mm 515.0 W/m2 CLR
11:29 19.6 °C 8.6 °C 1022.6 hPa WNW 31.5 km/h 31.5 km/h 49 % 0.0 mm 749.0 W/m2 CLR
11:34 20.0 °C 8.7 °C 1022.6 hPa NW 24.1 km/h 24.1 km/h 48 % 0.0 mm 726.0 W/m2 CLR
11:39 20.3 °C 8.7 °C 1022.6 hPa NW 20.9 km/h 20.9 km/h 47 % 0.0 mm 735.0 W/m2 CLR
11:44 20.3 °C 8.3 °C 1022.2 hPa WNW 29.0 km/h 29.0 km/h 46 % 0.0 mm 751.0 W/m2 CLR
11:49 20.3 °C 8.3 °C 1022.6 hPa NNW 33.3 km/h 33.3 km/h 46 % 0.0 mm 759.0 W/m2 CLR
11:54 20.4 °C 8.1 °C 1022.6 hPa NNW 24.1 km/h 24.1 km/h 45 % 0.0 mm 770.0 W/m2 CLR
11:59 20.5 °C 8.2 °C 1022.2 hPa North 33.3 km/h 33.3 km/h 45 % 0.0 mm 775.0 W/m2 CLR
12:04 20.7 °C 8.3 °C 1022.2 hPa NW 22.2 km/h 22.2 km/h 45 % 0.0 mm 788.0 W/m2 CLR
12:09 20.9 °C 8.2 °C 1022.2 hPa NNW 30.6 km/h 30.6 km/h 44 % 0.0 mm 795.0 W/m2 CLR
12:14 20.8 °C 8.1 °C 1022.2 hPa West 14.8 km/h 14.8 km/h 44 % 0.0 mm 807.0 W/m2 CLR
12:19 21.0 °C 8.3 °C 1021.9 hPa North 27.8 km/h 27.8 km/h 44 % 0.0 mm 814.0 W/m2 CLR
12:24 21.2 °C 8.4 °C 1021.9 hPa WNW 19.3 km/h 19.3 km/h 44 % 0.0 mm 821.0 W/m2 CLR
12:29 21.3 °C 8.2 °C 1022.2 hPa NW 33.3 km/h 33.3 km/h 43 % 0.0 mm 830.0 W/m2 CLR
12:34 21.4 °C 8.3 °C 1022.2 hPa WNW 33.3 km/h 33.3 km/h 43 % 0.0 mm 838.0 W/m2 CLR
12:39 21.1 °C 8.1 °C 1021.9 hPa NNW 27.8 km/h 27.8 km/h 43 % 0.0 mm 842.0 W/m2 CLR
12:44 21.3 °C 7.8 °C 1022.2 hPa North 31.5 km/h 31.5 km/h 42 % 0.0 mm 849.0 W/m2 CLR
12:49 21.4 °C 8.3 °C 1021.9 hPa NW 25.9 km/h 25.9 km/h 43 % 0.0 mm 856.0 W/m2 CLR
12:54 21.6 °C 8.2 °C 1021.9 hPa NW 37.0 km/h 37.0 km/h 42 % 0.0 mm 863.0 W/m2 CLR
12:59 21.5 °C 8.4 °C 1021.9 hPa West 25.7 km/h 25.7 km/h 43 % 0.0 mm 870.0 W/m2 CLR
13:04 21.8 °C 8.3 °C 1021.9 hPa WNW 24.1 km/h 24.1 km/h 42 % 0.0 mm 877.0 W/m2 CLR
13:09 22.0 °C 8.5 °C 1021.9 hPa NW 27.8 km/h 27.8 km/h 42 % 0.0 mm 888.0 W/m2 CLR
13:14 22.1 °C 8.6 °C 1021.9 hPa NNW 22.2 km/h 22.2 km/h 42 % 0.0 mm 891.0 W/m2 CLR
13:19 22.3 °C 8.4 °C 1021.9 hPa NW 25.9 km/h 25.9 km/h 41 % 0.0 mm 844.0 W/m2 CLR
13:24 22.3 °C 8.4 °C 1021.9 hPa NW 24.1 km/h 24.1 km/h 41 % 0.0 mm 896.0 W/m2 CLR
13:34 22.6 °C 8.7 °C 1021.6 hPa NNW 33.3 km/h 33.3 km/h 41 % 0.0 mm 882.0 W/m2 CLR
13:39 22.8 °C 8.9 °C 1021.6 hPa NNW 20.4 km/h 20.4 km/h 41 % 0.0 mm 833.0 W/m2 CLR
13:44 22.8 °C 8.4 °C 1021.6 hPa NW 29.6 km/h 29.6 km/h 40 % 0.0 mm 874.0 W/m2 CLR
13:49 22.8 °C 8.5 °C 1021.2 hPa North 19.3 km/h 19.3 km/h 40 % 0.0 mm 875.0 W/m2 CLR
13:54 23.3 °C 8.6 °C 1021.6 hPa NW 35.2 km/h 35.2 km/h 39 % 0.0 mm 907.0 W/m2 CLR
13:59 23.0 °C 8.7 °C 1021.2 hPa North 20.9 km/h 20.9 km/h 40 % 0.0 mm 851.0 W/m2 CLR
14:04 23.1 °C 8.3 °C 1021.2 hPa NNE 22.2 km/h 22.2 km/h 39 % 0.0 mm 911.0 W/m2 CLR
14:09 23.7 °C 8.5 °C 1021.6 hPa North 27.8 km/h 27.8 km/h 38 % 0.0 mm 856.0 W/m2 CLR
14:14 23.4 °C 7.9 °C 1021.2 hPa North 20.4 km/h 20.4 km/h 37 % 0.0 mm 940.0 W/m2 CLR
14:19 23.4 °C 7.9 °C 1021.2 hPa North 31.5 km/h 31.5 km/h 37 % 0.0 mm 849.0 W/m2 CLR
14:24 23.4 °C 7.9 °C 1021.2 hPa WNW 24.1 km/h 24.1 km/h 37 % 0.0 mm 803.0 W/m2 CLR
14:29 23.6 °C 8.1 °C 1021.2 hPa NNW 30.6 km/h 30.6 km/h 37 % 0.0 mm 946.0 W/m2 CLR
14:34 23.7 °C 7.7 °C 1021.2 hPa NNW 29.6 km/h 29.6 km/h 36 % 0.0 mm 907.0 W/m2 CLR
14:39 23.8 °C 7.8 °C 1020.9 hPa West 31.5 km/h 31.5 km/h 36 % 0.0 mm 888.0 W/m2 CLR
14:44 23.8 °C 7.8 °C 1021.2 hPa NNW 25.9 km/h 25.9 km/h 36 % 0.0 mm 932.0 W/m2 CLR
14:49 23.7 °C 7.8 °C 1020.9 hPa NNW 22.2 km/h 22.2 km/h 36 % 0.0 mm 779.0 W/m2 CLR
14:54 24.0 °C 8.0 °C 1020.9 hPa NW 27.8 km/h 27.8 km/h 36 % 0.0 mm 842.0 W/m2 CLR
14:59 24.4 °C 7.9 °C 1020.9 hPa NNW 22.2 km/h 22.2 km/h 35 % 0.0 mm 858.0 W/m2 CLR
15:04 24.2 °C 7.8 °C 1020.9 hPa NW 20.9 km/h 20.9 km/h 35 % 0.0 mm 911.0 W/m2 CLR
15:09 24.5 °C 8.1 °C 1020.9 hPa NW 22.5 km/h 22.5 km/h 35 % 0.0 mm 802.0 W/m2 CLR
15:14 24.7 °C 6.9 °C 1020.9 hPa NNW 35.2 km/h 35.2 km/h 32 % 0.0 mm 904.0 W/m2 CLR
15:19 24.7 °C 7.8 °C 1020.9 hPa NNW 22.2 km/h 22.2 km/h 34 % 0.0 mm 842.0 W/m2 CLR
15:24 24.8 °C 7.4 °C 1020.9 hPa North 18.5 km/h 18.5 km/h 33 % 0.0 mm 868.0 W/m2 CLR
15:29 24.9 °C 7.1 °C 1020.5 hPa NW 22.5 km/h 22.5 km/h 32 % 0.0 mm 853.0 W/m2 CLR
15:34 25.0 °C 7.2 °C 1020.5 hPa NNW 31.5 km/h 31.5 km/h 32 % 0.0 mm 847.0 W/m2 CLR
15:39 24.9 °C 7.1 °C 1020.5 hPa NNW 37.0 km/h 37.0 km/h 32 % 0.0 mm 842.0 W/m2 CLR
15:44 24.9 °C 7.1 °C 1020.5 hPa NW 20.4 km/h 20.4 km/h 32 % 0.0 mm 830.0 W/m2 CLR
15:49 25.2 °C 6.8 °C 1020.5 hPa WNW 31.5 km/h 31.5 km/h 31 % 0.0 mm 824.0 W/m2 CLR
15:54 25.1 °C 7.2 °C 1020.5 hPa NNE 3.2 km/h 3.2 km/h 32 % 0.0 mm 817.0 W/m2 CLR
15:59 25.4 °C 7.1 °C 1020.5 hPa NW 29.6 km/h 29.6 km/h 31 % 0.0 mm 803.0 W/m2 CLR
16:04 25.4 °C 7.5 °C 1020.2 hPa NW 24.1 km/h 24.1 km/h 32 % 0.0 mm 795.0 W/m2 CLR
16:09 25.4 °C 7.9 °C 1020.2 hPa NNW 20.9 km/h 20.9 km/h 33 % 0.0 mm 780.0 W/m2 CLR
16:14 25.3 °C 7.4 °C 1020.2 hPa NNW 24.1 km/h 24.1 km/h 32 % 0.0 mm 775.0 W/m2 CLR
16:19 25.4 °C 7.9 °C 1020.2 hPa NNW 25.9 km/h 25.9 km/h 33 % 0.0 mm 763.0 W/m2 CLR
16:24 25.6 °C 7.2 °C 1020.2 hPa WNW 33.3 km/h 33.3 km/h 31 % 0.0 mm 737.0 W/m2 CLR
16:29 25.7 °C 7.3 °C 1020.2 hPa NW 31.5 km/h 31.5 km/h 31 % 0.0 mm 731.0 W/m2 CLR
16:39 25.7 °C 7.3 °C 1019.9 hPa NW 25.9 km/h 25.9 km/h 31 % 0.0 mm 724.0 W/m2 CLR
16:44 26.1 °C 6.6 °C 1019.9 hPa WNW 31.5 km/h 31.5 km/h 29 % 0.0 mm 714.0 W/m2 CLR
16:49 26.0 °C 6.6 °C 1019.9 hPa NW 33.3 km/h 33.3 km/h 29 % 0.0 mm 701.0 W/m2 CLR
16:55 26.0 °C 7.1 °C 1019.5 hPa WNW 24.1 km/h 24.1 km/h 30 % 0.0 mm 689.0 W/m2 CLR
17:00 26.2 °C 6.8 °C 1019.9 hPa WNW 24.1 km/h 24.1 km/h 29 % 0.0 mm 677.0 W/m2 CLR
17:05 26.0 °C 6.6 °C 1019.9 hPa WNW 18.5 km/h 18.5 km/h 29 % 0.0 mm 668.0 W/m2 CLR
17:10 26.1 °C 7.1 °C 1019.9 hPa NW 13.0 km/h 13.0 km/h 30 % 0.0 mm 668.0 W/m2 CLR
17:11 26.1 °C 7.2 °C 1019.9 hPa North 22.5 km/h 22.5 km/h 30 % 0.0 mm 610.0 W/m2 CLR
17:16 26.2 °C 6.7 °C 1019.5 hPa WNW 37.0 km/h 37.0 km/h 29 % 0.0 mm 642.0 W/m2 CLR
17:21 26.2 °C 6.3 °C 1019.5 hPa NW 29.6 km/h 29.6 km/h 28 % 0.0 mm 615.0 W/m2 CLR
17:25 26.2 °C 6.3 °C 1019.5 hPa NNW 22.2 km/h 22.2 km/h 28 % 0.0 mm 613.0 W/m2 CLR
17:30 26.5 °C 6.5 °C 1019.5 hPa WNW 24.1 km/h 24.1 km/h 28 % 0.0 mm 601.0 W/m2 CLR
17:35 26.5 °C 6.0 °C 1019.5 hPa WNW 20.4 km/h 20.4 km/h 27 % 0.0 mm 585.0 W/m2 CLR
17:40 26.7 °C 6.7 °C 1019.5 hPa NW 22.5 km/h 22.5 km/h 28 % 0.0 mm 577.0 W/m2 CLR
17:45 26.9 °C 5.8 °C 1019.5 hPa WNW 29.0 km/h 29.0 km/h 26 % 0.0 mm 564.0 W/m2 CLR
17:50 26.6 °C 5.5 °C 1019.5 hPa WSW 18.5 km/h 18.5 km/h 26 % 0.0 mm 543.0 W/m2 CLR
17:55 26.5 °C 6.0 °C 1019.5 hPa West 31.5 km/h 31.5 km/h 27 % 0.0 mm 526.0 W/m2 CLR
18:00 26.5 °C 6.0 °C 1019.5 hPa WNW 22.2 km/h 22.2 km/h 27 % 0.0 mm 512.0 W/m2 CLR
18:05 26.4 °C 5.9 °C 1019.5 hPa NW 24.1 km/h 24.1 km/h 27 % 0.0 mm 501.0 W/m2 CLR
18:10 26.7 °C 6.2 °C 1019.5 hPa NNW 29.6 km/h 29.6 km/h 27 % 0.0 mm 485.0 W/m2 CLR
18:15 26.6 °C 6.0 °C 1019.2 hPa NW 25.7 km/h 25.7 km/h 27 % 0.0 mm 466.0 W/m2 CLR
18:20 26.7 °C 5.6 °C 1019.5 hPa NNW 31.5 km/h 31.5 km/h 26 % 0.0 mm 448.0 W/m2 CLR
18:25 26.7 °C 5.6 °C 1019.5 hPa WNW 18.5 km/h 18.5 km/h 26 % 0.0 mm 434.0 W/m2 CLR
18:30 26.9 °C 5.8 °C 1019.2 hPa NNW 22.2 km/h 22.2 km/h 26 % 0.0 mm 417.0 W/m2 CLR
18:35 26.7 °C 5.6 °C 1019.2 hPa NNW 24.1 km/h 24.1 km/h 26 % 0.0 mm 399.0 W/m2 CLR
18:40 26.7 °C 5.6 °C 1019.2 hPa WNW 22.2 km/h 22.2 km/h 26 % 0.0 mm 385.0 W/m2 CLR
18:45 26.8 °C 5.2 °C 1019.2 hPa WNW 16.7 km/h 16.7 km/h 25 % 0.0 mm 369.0 W/m2 CLR
18:50 27.0 °C 5.3 °C 1019.2 hPa NNW 20.4 km/h 20.4 km/h 25 % 0.0 mm 355.0 W/m2 CLR
18:55 26.8 °C 5.1 °C 1019.2 hPa NNE 18.5 km/h 18.5 km/h 25 % 0.0 mm 336.0 W/m2 CLR
19:00 26.7 °C 5.6 °C 1019.2 hPa North 18.5 km/h 18.5 km/h 26 % 0.0 mm 322.0 W/m2 CLR
19:05 26.5 °C 6.0 °C 1019.2 hPa North 18.5 km/h 18.5 km/h 27 % 0.0 mm 302.0 W/m2 CLR
19:10 26.5 °C 6.0 °C 1019.2 hPa NNW 18.5 km/h 18.5 km/h 27 % 0.0 mm 287.0 W/m2 CLR
19:15 26.4 °C 5.9 °C 1019.2 hPa NNW 27.4 km/h 27.4 km/h 27 % 0.0 mm 267.0 W/m2 CLR
19:20 26.3 °C 6.3 °C 1019.2 hPa North 31.5 km/h 31.5 km/h 28 % 0.0 mm 255.0 W/m2 CLR
19:25 26.3 °C 6.3 °C 1019.2 hPa NNW 25.9 km/h 25.9 km/h 28 % 0.0 mm 239.0 W/m2 CLR
19:30 26.2 °C 6.2 °C 1019.2 hPa NNW 22.5 km/h 22.5 km/h 28 % 0.0 mm 223.0 W/m2 CLR
19:35 26.1 °C 6.2 °C 1019.2 hPa North 25.9 km/h 25.9 km/h 28 % 0.0 mm 202.0 W/m2 CLR
19:40 26.1 °C 6.1 °C 1019.2 hPa NW 14.8 km/h 14.8 km/h 28 % 0.0 mm 167.0 W/m2 CLR
19:45 25.8 °C 5.9 °C 1019.5 hPa NNW 22.2 km/h 22.2 km/h 28 % 0.0 mm 125.0 W/m2 CLR
19:50 25.6 °C 6.2 °C 1019.5 hPa NW 14.8 km/h 14.8 km/h 29 % 0.0 mm 148.0 W/m2 CLR
19:55 25.5 °C 6.2 °C 1019.5 hPa NW 25.9 km/h 25.9 km/h 29 % 0.0 mm 113.0 W/m2 CLR
20:00 25.4 °C 6.6 °C 1019.5 hPa NNW 31.5 km/h 31.5 km/h 30 % 0.0 mm 105.0 W/m2 CLR
20:05 25.2 °C 6.9 °C 1019.5 hPa NW 19.3 km/h 19.3 km/h 31 % 0.0 mm 93.0 W/m2 FEW
20:10 25.1 °C 6.8 °C 1019.5 hPa NNW 31.5 km/h 31.5 km/h 31 % 0.0 mm 81.0 W/m2 FEW
20:15 25.0 °C 6.7 °C 1019.9 hPa NW 22.2 km/h 22.2 km/h 31 % 0.0 mm 69.0 W/m2 FEW
20:20 24.8 °C 6.5 °C 1019.9 hPa North 20.4 km/h 20.4 km/h 31 % 0.0 mm 37.0 W/m2 BKN
20:25 24.6 °C 6.3 °C 1019.9 hPa WNW 20.9 km/h 20.9 km/h 31 % 0.0 mm 28.0 W/m2 BKN
20:30 24.4 °C 6.6 °C 1019.9 hPa NNW 18.5 km/h 18.5 km/h 32 % 0.0 mm 30.0 W/m2 BKN
20:35 24.4 °C 6.6 °C 1019.9 hPa NW 22.2 km/h 22.2 km/h 32 % 0.0 mm 30.0 W/m2 BKN
20:40 24.3 °C 6.5 °C 1019.9 hPa NNW 18.5 km/h 18.5 km/h 32 % 0.0 mm 25.0 W/m2 BKN
20:45 24.1 °C 6.8 °C 1019.9 hPa NW 20.4 km/h 20.4 km/h 33 % 0.0 mm 21.0 W/m2 BKN
20:50 23.9 °C 6.6 °C 1019.9 hPa NW 20.4 km/h 20.4 km/h 33 % 0.0 mm 16.0 W/m2 BKN
20:55 23.7 °C 6.9 °C 1019.9 hPa North 16.1 km/h 16.1 km/h 34 % 0.0 mm 11.0 W/m2 BKN
21:01 23.5 °C 6.7 °C 1019.9 hPa NW 16.7 km/h 16.7 km/h 34 % 0.0 mm 7.0 W/m2 BKN
21:06 23.3 °C 6.6 °C 1019.9 hPa NNW 18.5 km/h 18.5 km/h 34 % 0.0 mm 0.0 W/m2 OVC
21:10 23.2 °C 6.5 °C 1020.2 hPa NW 13.0 km/h 13.0 km/h 34 % 0.0 mm 5.0 W/m2 OVC
21:16 23.1 °C 6.4 °C 1020.2 hPa NW 18.5 km/h 18.5 km/h 34 % 0.0 mm 0.0 W/m2 CLR
21:21 22.9 °C 6.7 °C 1020.2 hPa NNW 16.1 km/h 16.1 km/h 35 % 0.0 mm 0.0 W/m2 CLR
21:26 22.8 °C 6.5 °C 1020.2 hPa WNW 11.1 km/h 11.1 km/h 35 % 0.0 mm 0.0 W/m2 CLR
21:31 22.7 °C 6.4 °C 1020.5 hPa WNW 16.7 km/h 16.7 km/h 35 % 0.0 mm 0.0 W/m2 CLR
21:36 22.6 °C 6.3 °C 1020.5 hPa WNW 14.8 km/h 14.8 km/h 35 % 0.0 mm 0.0 W/m2 CLR
21:41 22.4 °C 6.2 °C 1020.5 hPa NW 24.1 km/h 24.1 km/h 35 % 0.0 mm 0.0 W/m2 CLR
21:46 22.4 °C 6.2 °C 1020.9 hPa NW 22.2 km/h 22.2 km/h 35 % 0.0 mm 0.0 W/m2 CLR
21:51 22.3 °C 6.1 °C 1020.9 hPa WNW 18.5 km/h 18.5 km/h 35 % 0.0 mm 0.0 W/m2 CLR
21:56 22.2 °C 6.4 °C 1020.9 hPa NW 20.4 km/h 20.4 km/h 36 % 0.0 mm 0.0 W/m2 CLR
22:01 22.1 °C 6.3 °C 1021.2 hPa NW 11.3 km/h 11.3 km/h 36 % 0.0 mm 0.0 W/m2 CLR
22:06 22.0 °C 6.2 °C 1021.2 hPa NW 13.0 km/h 13.0 km/h 36 % 0.0 mm 0.0 W/m2 CLR
22:11 21.9 °C 6.1 °C 1021.2 hPa NW 18.5 km/h 18.5 km/h 36 % 0.0 mm 0.0 W/m2 CLR
22:16 21.8 °C 6.5 °C 1021.2 hPa NW 18.5 km/h 18.5 km/h 37 % 0.0 mm 0.0 W/m2 CLR
22:21 21.7 °C 6.4 °C 1021.2 hPa WNW 14.8 km/h 14.8 km/h 37 % 0.0 mm 0.0 W/m2 CLR
22:26 21.6 °C 6.3 °C 1021.2 hPa West 13.0 km/h 13.0 km/h 37 % 0.0 mm 0.0 W/m2 CLR
22:31 21.6 °C 6.7 °C 1021.2 hPa WSW 18.5 km/h 18.5 km/h 38 % 0.0 mm 0.0 W/m2 CLR
22:36 21.6 °C 6.7 °C 1021.2 hPa WNW 16.7 km/h 16.7 km/h 38 % 0.0 mm 0.0 W/m2 CLR
22:41 21.4 °C 6.5 °C 1021.2 hPa Calm     38 % 0.0 mm 0.0 W/m2 CLR
22:46 21.3 °C 6.8 °C 1021.2 hPa Calm     39 % 0.0 mm 0.0 W/m2 CLR
22:51 21.2 °C 6.7 °C 1021.2 hPa Calm     39 % 0.0 mm 0.0 W/m2 CLR
22:56 21.1 °C 6.9 °C 1021.6 hPa West 11.1 km/h 11.1 km/h 40 % 0.0 mm 0.0 W/m2 CLR
23:01 21.1 °C 6.9 °C 1021.6 hPa WSW 1.9 km/h 1.9 km/h 40 % 0.0 mm 0.0 W/m2 CLR
23:06 21.0 °C 7.2 °C 1021.6 hPa WSW 5.6 km/h 5.6 km/h 41 % 0.0 mm 0.0 W/m2 CLR
23:11 20.9 °C 7.2 °C 1021.6 hPa Calm     41 % 0.0 mm 0.0 W/m2 CLR
23:16 20.8 °C 7.1 °C 1021.6 hPa WSW 5.6 km/h 5.6 km/h 41 % 0.0 mm 0.0 W/m2 CLR
23:21 20.6 °C 7.2 °C 1021.6 hPa WSW 5.6 km/h 5.6 km/h 42 % 0.0 mm 0.0 W/m2 CLR
23:26 20.4 °C 7.1 °C 1021.6 hPa Calm     42 % 0.0 mm 0.0 W/m2 CLR
23:31 20.2 °C 7.2 °C 1021.6 hPa West 5.6 km/h 5.6 km/h 43 % 0.0 mm 0.0 W/m2 CLR
23:36 20.3 °C 7.3 °C 1021.2 hPa West 11.1 km/h 11.1 km/h 43 % 0.0 mm 0.0 W/m2 CLR
23:41 20.4 °C 7.4 °C 1021.2 hPa West 9.3 km/h 9.3 km/h 43 % 0.0 mm 0.0 W/m2 CLR
23:46 20.3 °C 7.7 °C 1021.2 hPa West 13.0 km/h 13.0 km/h 44 % 0.0 mm 0.0 W/m2 CLR
23:51 20.3 °C 7.7 °C 1021.6 hPa West 18.5 km/h 18.5 km/h 44 % 0.0 mm 0.0 W/m2 CLR
23:56 20.3 °C 7.7 °C 1021.2 hPa Calm     44 % 0.0 mm 0.0 W/m2 CLR
Lo Temps de Massalio
Compliments of Weather Underground - 1.25 mb